createdAt,value
2019-02-05T00:00:45.708Z,101552.02
2019-02-05T00:03:17.618Z,101548.56
2019-02-05T00:05:46.910Z,101547.58
2019-02-05T00:08:16.134Z,101547.94
2019-02-05T00:10:45.373Z,101543.50
2019-02-05T00:13:14.952Z,101551.29
2019-02-05T00:15:44.190Z,101539.83
2019-02-05T00:18:13.696Z,101547.21
2019-02-05T00:20:42.937Z,101549.72
2019-02-05T00:23:12.136Z,101546.63
2019-02-05T00:25:41.368Z,101544.00
2019-02-05T00:28:10.913Z,101555.72
2019-02-05T00:30:40.140Z,101550.88
2019-02-05T00:33:09.414Z,101553.17
2019-02-05T00:35:38.656Z,101549.25
2019-02-05T00:38:07.851Z,101538.91
2019-02-05T00:40:37.060Z,101542.22
2019-02-05T00:43:06.683Z,101534.36
2019-02-05T00:45:35.875Z,101531.56
2019-02-05T00:48:05.174Z,101541.89
2019-02-05T00:50:34.369Z,101538.95
2019-02-05T00:53:04.347Z,101528.22
2019-02-05T00:55:33.604Z,101522.97
2019-02-05T00:58:03.226Z,101528.77
2019-02-05T01:00:33.164Z,101533.53
2019-02-05T01:03:02.489Z,101528.94
2019-02-05T01:05:31.733Z,101527.38
2019-02-05T01:08:01.408Z,101529.75
2019-02-05T01:10:30.903Z,101527.12
2019-02-05T01:13:00.136Z,101530.30
2019-02-05T01:15:29.339Z,101535.46
2019-02-05T01:17:58.585Z,101535.97
2019-02-05T01:20:27.849Z,101541.69
2019-02-05T01:22:57.080Z,101542.66
2019-02-05T01:25:26.284Z,101538.66
2019-02-05T01:27:55.495Z,101539.97
2019-02-05T01:30:26.912Z,101541.36
2019-02-05T01:32:56.144Z,101533.89
2019-02-05T01:35:25.363Z,101538.26
2019-02-05T01:37:54.768Z,101536.84
2019-02-05T01:40:26.449Z,101537.75
2019-02-05T01:42:55.835Z,101542.01
2019-02-05T01:45:25.482Z,101542.84
2019-02-05T01:47:54.757Z,101549.88
2019-02-05T01:50:27.906Z,101543.83
2019-02-05T01:52:57.273Z,101555.04
2019-02-05T01:55:26.475Z,101544.09
2019-02-05T01:57:55.791Z,101554.74
2019-02-05T02:00:30.808Z,101549.98
2019-02-05T02:03:00.334Z,101553.77
2019-02-05T02:05:29.540Z,101553.17
2019-02-05T02:07:59.166Z,101547.53
2019-02-05T02:10:30.159Z,101551.03
2019-02-05T02:12:59.400Z,101548.77
2019-02-05T02:15:29.039Z,101545.39
2019-02-05T02:17:58.262Z,101545.79
2019-02-05T02:20:27.468Z,101546.95
2019-02-05T02:22:57.159Z,101546.95
2019-02-05T02:25:26.359Z,101550.73
2019-02-05T02:27:55.602Z,101554.08
2019-02-05T02:30:26.942Z,101553.17
2019-02-05T02:32:56.176Z,101549.67
2019-02-05T02:35:25.380Z,101539.52
2019-02-05T02:37:54.889Z,101547.38
2019-02-05T02:40:24.128Z,101555.56
2019-02-05T02:42:53.358Z,101556.95
2019-02-05T02:45:22.554Z,101566.12
2019-02-05T02:47:51.809Z,101561.39
2019-02-05T02:50:22.179Z,101570.30
2019-02-05T02:52:51.695Z,101573.47
2019-02-05T02:55:20.901Z,101574.78
2019-02-05T02:57:50.137Z,101573.47
2019-02-05T03:00:21.170Z,101565.14
2019-02-05T03:02:51.682Z,101573.47
2019-02-05T03:05:23.428Z,101561.28
2019-02-05T03:07:52.622Z,101563.83
2019-02-05T03:10:23.755Z,101568.75
2019-02-05T03:12:53.525Z,101573.55
2019-02-05T03:15:22.717Z,101575.30
2019-02-05T03:17:51.992Z,101573.55
2019-02-05T03:20:21.227Z,101569.55
2019-02-05T03:22:50.839Z,101567.02
2019-02-05T03:25:21.985Z,101575.28
2019-02-05T03:27:53.831Z,101571.20
2019-02-05T03:30:23.728Z,101567.26
2019-02-05T03:32:54.033Z,101572.82
2019-02-05T03:35:24.233Z,101581.00
2019-02-05T03:37:53.540Z,101579.30
2019-02-05T03:40:31.707Z,101575.29
2019-02-05T03:43:01.935Z,101583.14
2019-02-05T03:45:31.518Z,101595.76
2019-02-05T03:48:02.746Z,101593.86
2019-02-05T03:50:33.848Z,101588.70
2019-02-05T03:53:25.549Z,101592.63
2019-02-05T03:56:19.300Z,101582.48
2019-02-05T03:58:52.161Z,101580.38
2019-02-05T04:01:42.518Z,101585.09
2019-02-05T04:04:20.304Z,101576.44
2019-02-05T04:07:07.550Z,101580.38
2019-02-05T04:09:48.990Z,101570.55
2019-02-05T04:12:24.595Z,101560.98
2019-02-05T04:14:57.473Z,101559.56
2019-02-05T04:17:44.803Z,101555.23
2019-02-05T04:20:50.586Z,101553.02
2019-02-05T04:23:38.077Z,101556.54
2019-02-05T04:26:19.284Z,101564.47
2019-02-05T04:29:09.114Z,101561.05
2019-02-05T04:31:44.227Z,101560.66
2019-02-05T04:34:16.735Z,101566.77
2019-02-05T04:37:04.632Z,101559.34
2019-02-05T04:39:43.161Z,101565.97
2019-02-05T04:42:18.299Z,101571.20
2019-02-05T04:45:03.346Z,101567.36
2019-02-05T04:47:56.722Z,101565.97
2019-02-05T04:50:38.151Z,101571.20
2019-02-05T04:53:25.885Z,101566.69
2019-02-05T04:56:01.294Z,101570.39
2019-02-05T04:58:51.740Z,101570.86
2019-02-05T05:01:33.098Z,101571.58
2019-02-05T05:04:11.311Z,101562.86
2019-02-05T05:07:11.286Z,101571.58
2019-02-05T05:09:55.609Z,101561.95
2019-02-05T05:12:25.730Z,101565.95
2019-02-05T05:14:54.992Z,101567.77
2019-02-05T05:17:24.219Z,101570.94
2019-02-05T05:19:53.457Z,101571.45
2019-02-05T05:22:22.663Z,101563.48
2019-02-05T05:24:51.900Z,101575.78
2019-02-05T05:27:21.198Z,101573.31
2019-02-05T05:29:50.407Z,101579.06
2019-02-05T05:32:19.640Z,101574.38
2019-02-05T05:34:48.852Z,101576.92
2019-02-05T05:37:17.159Z,101576.20
2019-02-05T05:39:46.360Z,101581.00
2019-02-05T05:42:15.567Z,101582.42
2019-02-05T05:44:45.201Z,101582.65
2019-02-05T05:47:14.392Z,101586.58
2019-02-05T05:49:43.626Z,101584.80
2019-02-05T05:52:12.828Z,101583.56
2019-02-05T05:54:42.433Z,101590.35
2019-02-05T05:57:11.676Z,101594.28
2019-02-05T05:59:40.882Z,101603.92
2019-02-05T06:02:10.128Z,101604.91
2019-02-05T06:04:39.589Z,101603.60
2019-02-05T06:07:08.806Z,101599.83
2019-02-05T06:09:38.044Z,101607.61
2019-02-05T06:12:07.248Z,101613.36
2019-02-05T06:14:36.486Z,101616.85
2019-02-05T06:17:06.179Z,101619.26
2019-02-05T06:19:35.423Z,101616.20
2019-02-05T06:22:04.728Z,101625.96
2019-02-05T06:24:34.405Z,101625.56
2019-02-05T06:27:04.238Z,101621.20
2019-02-05T06:29:33.484Z,101627.83
2019-02-05T06:32:02.721Z,101624.88
2019-02-05T06:34:31.924Z,101640.92
2019-02-05T06:37:01.173Z,101646.27
2019-02-05T06:39:30.376Z,101647.27
2019-02-05T06:41:59.608Z,101652.14
2019-02-05T06:44:28.896Z,101656.19
2019-02-05T06:46:58.281Z,101656.51
2019-02-05T06:49:27.754Z,101661.31
2019-02-05T06:51:56.996Z,101663.45
2019-02-05T06:54:26.230Z,101667.31
2019-02-05T06:56:55.761Z,101661.55
2019-02-05T06:59:25.077Z,101675.48
2019-02-05T07:01:54.318Z,101675.48
2019-02-05T07:04:23.938Z,101679.89
2019-02-05T07:06:53.267Z,101687.44
2019-02-05T07:09:22.619Z,101690.97
2019-02-05T07:11:51.859Z,101692.03
2019-02-05T07:14:21.103Z,101707.11
2019-02-05T07:16:50.377Z,101701.87
2019-02-05T07:19:19.707Z,101706.79
2019-02-05T07:21:49.264Z,101710.80
2019-02-05T07:24:18.459Z,101711.78
2019-02-05T07:26:47.724Z,101719.20
2019-02-05T07:29:16.924Z,101724.05
2019-02-05T07:31:46.176Z,101724.20
2019-02-05T07:34:15.381Z,101725.63
2019-02-05T07:36:44.992Z,101719.08
2019-02-05T07:39:14.284Z,101729.45
2019-02-05T07:41:43.521Z,101732.66
2019-02-05T07:44:12.725Z,101737.82
2019-02-05T07:46:41.938Z,101732.66
2019-02-05T07:49:11.177Z,101742.23
2019-02-05T07:51:40.423Z,101741.35
2019-02-05T07:54:09.640Z,101741.03
2019-02-05T07:56:40.682Z,101748.73
2019-02-05T07:59:10.655Z,101751.35
2019-02-05T08:01:40.050Z,101747.89
2019-02-05T08:04:09.291Z,101752.17
2019-02-05T08:06:38.506Z,101752.84
2019-02-05T08:09:09.044Z,101746.59
2019-02-05T08:11:41.343Z,101754.40
2019-02-05T08:14:11.545Z,101760.05
2019-02-05T08:16:40.758Z,101761.59
2019-02-05T08:19:09.999Z,101761.84
2019-02-05T08:21:39.283Z,101744.95
2019-02-05T08:24:08.485Z,101754.70
2019-02-05T08:26:37.739Z,101757.33
2019-02-05T08:29:06.981Z,101760.79
2019-02-05T08:31:36.221Z,101763.78
2019-02-05T08:34:05.980Z,101766.59
2019-02-05T08:36:35.574Z,101769.61
2019-02-05T08:39:07.182Z,101769.36
2019-02-05T08:41:37.412Z,101764.36
2019-02-05T08:44:06.618Z,101766.01
2019-02-05T08:46:36.040Z,101768.05
2019-02-05T08:49:05.577Z,101769.29
2019-02-05T08:51:34.843Z,101767.62
2019-02-05T08:54:04.263Z,101781.50
2019-02-05T08:56:33.521Z,101779.43
2019-02-05T08:59:02.784Z,101775.09
2019-02-05T09:01:31.992Z,101784.75
2019-02-05T09:04:01.201Z,101789.27
2019-02-05T09:06:30.438Z,101795.91
2019-02-05T09:08:59.712Z,101793.44
2019-02-05T09:11:28.965Z,101796.56
2019-02-05T09:13:58.170Z,101797.84
2019-02-05T09:16:27.412Z,101794.81
2019-02-05T09:18:56.951Z,101790.62
2019-02-05T09:21:26.216Z,101798.02
2019-02-05T09:23:55.567Z,101792.40
2019-02-05T09:26:24.783Z,101797.16
2019-02-05T09:28:54.049Z,101799.73
2019-02-05T09:31:23.329Z,101800.72
2019-02-05T09:33:52.592Z,101802.90
2019-02-05T09:36:21.974Z,101808.98
2019-02-05T09:38:51.218Z,101808.16
2019-02-05T09:41:20.475Z,101815.30
2019-02-05T09:43:49.680Z,101808.87
2019-02-05T09:46:18.940Z,101814.05
2019-02-05T09:48:48.157Z,101820.23
2019-02-05T09:51:17.403Z,101815.12
2019-02-05T09:53:46.621Z,101817.02
2019-02-05T09:56:15.866Z,101820.10
2019-02-05T09:58:45.075Z,101811.50
2019-02-05T10:01:14.478Z,101816.61
2019-02-05T10:03:43.683Z,101822.12
2019-02-05T10:06:12.928Z,101819.09
2019-02-05T10:08:42.553Z,101818.59
2019-02-05T10:11:11.768Z,101818.66
2019-02-05T10:13:41.017Z,101819.20
2019-02-05T10:16:10.221Z,101818.36
2019-02-05T10:18:39.519Z,101817.58
2019-02-05T10:21:08.723Z,101820.01
2019-02-05T10:23:37.963Z,101820.70
2019-02-05T10:26:07.605Z,101809.75
2019-02-05T10:28:36.811Z,101825.09
2019-02-05T10:31:06.020Z,101823.58
2019-02-05T10:33:35.276Z,101823.89
2019-02-05T10:36:05.049Z,101833.76
2019-02-05T10:38:34.314Z,101830.17
2019-02-05T10:41:04.613Z,101837.53
2019-02-05T10:43:33.863Z,101837.41
2019-02-05T10:46:04.188Z,101836.52
2019-02-05T10:48:33.419Z,101833.32
2019-02-05T10:51:02.665Z,101835.70
2019-02-05T10:53:31.924Z,101835.20
2019-02-05T10:56:01.145Z,101833.75
2019-02-05T10:58:30.782Z,101830.32
2019-02-05T11:01:00.000Z,101833.14
2019-02-05T11:03:29.230Z,101832.23
2019-02-05T11:05:58.440Z,101825.61
2019-02-05T11:08:27.697Z,101826.63
2019-02-05T11:10:56.907Z,101837.17
2019-02-05T11:13:26.164Z,101826.02
2019-02-05T11:15:55.434Z,101832.45
2019-02-05T11:18:24.678Z,101834.58
2019-02-05T11:20:53.886Z,101838.41
2019-02-05T11:23:23.121Z,101836.13
2019-02-05T11:25:52.338Z,101838.25
2019-02-05T11:28:21.663Z,101820.50
2019-02-05T11:30:51.207Z,101822.20
2019-02-05T11:33:20.477Z,101821.35
2019-02-05T11:35:49.683Z,101817.17
2019-02-05T11:38:19.054Z,101816.55
2019-02-05T11:40:48.687Z,101815.92
2019-02-05T11:43:17.948Z,101802.13
2019-02-05T11:45:47.231Z,101803.25
2019-02-05T11:48:16.821Z,101809.95
2019-02-05T11:50:46.109Z,101807.55
2019-02-05T11:53:15.380Z,101819.25
2019-02-05T11:55:44.732Z,101817.34
2019-02-05T11:58:14.005Z,101817.69
2019-02-05T12:00:44.866Z,101814.36
2019-02-05T12:03:14.118Z,101813.55
2019-02-05T12:05:43.332Z,101815.95
2019-02-05T12:08:12.552Z,101812.98
2019-02-05T12:10:41.805Z,101813.26
2019-02-05T12:13:11.038Z,101815.77
2019-02-05T12:15:40.246Z,101822.12
2019-02-05T12:18:09.656Z,101817.16
2019-02-05T12:20:38.900Z,101818.75
2019-02-05T12:23:08.226Z,101820.34
2019-02-05T12:25:37.438Z,101816.45
2019-02-05T12:28:06.737Z,101811.25
2019-02-05T12:30:44.879Z,101812.36
2019-02-05T12:33:11.596Z,101812.17
2019-02-05T12:35:40.802Z,101811.25
2019-02-05T12:38:10.084Z,101802.48
2019-02-05T12:40:39.292Z,101802.55
2019-02-05T12:43:08.514Z,101802.61
2019-02-05T12:45:38.613Z,101802.89
2019-02-05T12:48:08.103Z,101803.22
2019-02-05T12:50:39.310Z,101798.64
2019-02-05T12:53:08.560Z,101809.66
2019-02-05T12:55:37.808Z,101811.19
2019-02-05T12:58:07.241Z,101808.16
2019-02-05T13:00:38.683Z,101809.65
2019-02-05T13:03:08.691Z,101806.42
2019-02-05T13:05:38.251Z,101812.02
2019-02-05T13:08:07.469Z,101809.39
2019-02-05T13:10:39.419Z,101810.36
2019-02-05T13:13:08.915Z,101813.83
2019-02-05T13:15:38.136Z,101815.75
2019-02-05T13:18:07.531Z,101806.14
2019-02-05T13:20:37.187Z,101814.63
2019-02-05T13:23:07.010Z,101803.27
2019-02-05T13:25:36.214Z,101804.21
2019-02-05T13:28:07.401Z,101805.72
2019-02-05T13:30:37.640Z,101805.63
2019-02-05T13:33:08.770Z,101813.20
2019-02-05T13:35:38.024Z,101812.73
2019-02-05T13:38:07.314Z,101817.33
2019-02-05T13:40:36.580Z,101818.31
2019-02-05T13:43:06.051Z,101821.13
2019-02-05T13:45:37.468Z,101829.75
2019-02-05T13:48:07.130Z,101843.30
2019-02-05T13:50:36.376Z,101834.81
2019-02-05T13:53:06.141Z,101845.52
2019-02-05T13:55:38.203Z,101850.39
2019-02-05T13:58:07.395Z,101846.97
2019-02-05T14:00:45.129Z,101859.97
2019-02-05T14:03:14.349Z,101861.73
2019-02-05T14:05:43.676Z,101866.58
2019-02-05T14:08:12.891Z,101870.20
2019-02-05T14:10:46.742Z,101869.06
2019-02-05T14:13:15.953Z,101874.97
2019-02-05T14:15:47.834Z,101875.56
2019-02-05T14:18:17.127Z,101881.94
2019-02-05T14:20:46.467Z,101880.87
2019-02-05T14:23:15.810Z,101886.60
2019-02-05T14:25:45.095Z,101879.38
2019-02-05T14:28:14.434Z,101893.09
2019-02-05T14:30:52.316Z,101885.64
2019-02-05T14:33:21.999Z,101896.47
2019-02-05T14:35:51.250Z,101897.70
2019-02-05T14:38:20.453Z,101895.00
2019-02-05T14:40:49.715Z,101894.81
2019-02-05T14:43:18.953Z,101899.77
2019-02-05T14:45:48.343Z,101897.14
2019-02-05T14:48:17.607Z,101901.95
2019-02-05T14:50:47.945Z,101907.77
2019-02-05T14:53:17.280Z,101903.36
2019-02-05T14:55:46.500Z,101907.77
2019-02-05T14:58:15.702Z,101909.59
2019-02-05T15:00:45.036Z,101903.59
2019-02-05T15:03:14.607Z,101909.52
2019-02-05T15:05:45.104Z,101904.91
2019-02-05T15:08:14.757Z,101910.89
2019-02-05T15:10:43.961Z,101903.34
2019-02-05T15:13:15.893Z,101902.19
2019-02-05T15:15:44.513Z,101905.97
2019-02-05T15:18:13.776Z,101901.72
2019-02-05T15:20:47.484Z,101908.42
2019-02-05T15:23:17.780Z,101908.59
2019-02-05T15:25:47.029Z,101910.30
2019-02-05T15:28:16.232Z,101912.02
2019-02-05T15:30:45.734Z,101913.09
2019-02-05T15:33:29.950Z,101916.95
2019-02-05T15:36:00.829Z,101923.83
2019-02-05T15:38:30.444Z,101917.08
2019-02-05T15:40:59.695Z,101919.55
2019-02-05T15:43:28.898Z,101921.61
2019-02-05T15:45:58.191Z,101911.75
2019-02-05T15:48:27.414Z,101914.62
2019-02-05T15:50:56.648Z,101909.85
2019-02-05T15:53:26.326Z,101916.53
2019-02-05T15:55:55.579Z,101917.36
2019-02-05T15:58:24.777Z,101918.00
2019-02-05T16:00:54.010Z,101918.63
2019-02-05T16:03:24.199Z,101919.70
2019-02-05T16:05:53.443Z,101917.48
2019-02-05T16:08:22.923Z,101922.05
2019-02-05T16:10:53.062Z,101918.03
2019-02-05T16:13:22.262Z,101919.94
2019-02-05T16:15:51.510Z,101918.94
2019-02-05T16:18:20.767Z,101919.77
2019-02-05T16:20:50.086Z,101916.64
2019-02-05T16:23:19.569Z,101916.80
2019-02-05T16:25:48.820Z,101918.46
2019-02-05T16:28:18.176Z,101929.58
2019-02-05T16:30:47.438Z,101929.38
2019-02-05T16:33:16.636Z,101932.44
2019-02-05T16:35:45.948Z,101935.77
2019-02-05T16:38:15.572Z,101938.08
2019-02-05T16:40:45.132Z,101932.66
2019-02-05T16:43:14.324Z,101930.84
2019-02-05T16:45:43.624Z,101931.16
2019-02-05T16:48:12.873Z,101941.23
2019-02-05T16:50:44.786Z,101938.78
2019-02-05T16:53:14.246Z,101938.78
2019-02-05T16:55:43.515Z,101939.61
2019-02-05T16:58:12.713Z,101950.02
2019-02-05T17:00:41.963Z,101953.03
2019-02-05T17:03:11.463Z,101948.02
2019-02-05T17:05:42.250Z,101948.02
2019-02-05T17:08:11.888Z,101955.17
2019-02-05T17:10:41.177Z,101950.41
2019-02-05T17:13:11.757Z,101954.42
2019-02-05T17:16:00.436Z,101949.58
2019-02-05T17:18:30.188Z,101957.88
2019-02-05T17:20:59.382Z,101958.27
2019-02-05T17:23:29.005Z,101959.33
2019-02-05T17:25:58.266Z,101957.59
2019-02-05T17:28:27.690Z,101952.86
2019-02-05T17:30:59.813Z,101951.64
2019-02-05T17:33:29.226Z,101955.05
2019-02-05T17:35:58.759Z,101958.67
2019-02-05T17:38:27.967Z,101956.88
2019-02-05T17:40:57.229Z,101955.88
2019-02-05T17:43:27.553Z,101965.89
2019-02-05T17:45:56.799Z,101963.27
2019-02-05T17:48:26.337Z,101969.38
2019-02-05T17:50:56.095Z,101959.50
2019-02-05T17:53:25.345Z,101957.80
2019-02-05T17:55:54.598Z,101957.05
2019-02-05T17:58:23.799Z,101953.72
2019-02-05T18:01:00.985Z,101952.48
2019-02-05T18:03:30.222Z,101959.44
2019-02-05T18:05:59.540Z,101959.04
2019-02-05T18:08:30.478Z,101955.59
2019-02-05T18:10:59.727Z,101961.83
2019-02-05T18:13:28.981Z,101962.74
2019-02-05T18:15:59.776Z,101966.27
2019-02-05T18:18:29.031Z,101962.34
2019-02-05T18:20:58.268Z,101964.13
2019-02-05T18:23:27.476Z,101963.73
2019-02-05T18:25:56.789Z,101961.03
2019-02-05T18:28:26.271Z,101953.65
2019-02-05T18:30:56.042Z,101956.78
2019-02-05T18:33:25.277Z,101955.36
2019-02-05T18:35:54.762Z,101955.79
2019-02-05T18:38:24.036Z,101950.03
2019-02-05T18:40:53.240Z,101959.41
2019-02-05T18:43:22.582Z,101957.66
2019-02-05T18:45:52.115Z,101959.89
2019-02-05T18:48:21.729Z,101955.95
2019-02-05T18:50:51.060Z,101963.50
2019-02-05T18:53:20.336Z,101960.05
2019-02-05T18:55:49.553Z,101964.50
2019-02-05T18:58:18.818Z,101968.44
2019-02-05T19:00:48.346Z,101964.50
2019-02-05T19:03:17.636Z,101964.98
2019-02-05T19:05:47.356Z,101969.83
2019-02-05T19:08:16.970Z,101974.16
2019-02-05T19:10:46.190Z,101972.84
2019-02-05T19:13:15.571Z,101975.98
2019-02-05T19:15:45.156Z,101979.40
2019-02-05T19:18:14.433Z,101979.71
2019-02-05T19:20:43.770Z,101982.84
2019-02-05T19:23:12.978Z,101993.42
2019-02-05T19:25:49.365Z,101994.64
2019-02-05T19:28:26.066Z,101988.48
2019-02-05T19:30:56.914Z,101991.71
2019-02-05T19:33:27.479Z,101986.86
2019-02-05T19:35:56.903Z,101984.72
2019-02-05T19:38:26.105Z,101985.16
2019-02-05T19:40:57.459Z,101987.26
2019-02-05T19:43:26.351Z,101981.45
2019-02-05T19:46:13.171Z,101977.92
2019-02-05T19:48:49.073Z,101972.28
2019-02-05T19:51:18.210Z,101974.47
2019-02-05T19:53:47.556Z,101980.23
2019-02-05T19:56:16.757Z,101982.02
2019-02-05T19:58:46.219Z,101977.21
2019-02-05T20:01:18.394Z,101973.16
2019-02-05T20:03:46.464Z,101980.62
2019-02-05T20:06:15.699Z,101972.28
2019-02-05T20:08:44.945Z,101972.28
2019-02-05T20:11:14.149Z,101973.27
2019-02-05T20:13:43.357Z,101971.05
2019-02-05T20:16:12.695Z,101977.61
2019-02-05T20:18:41.889Z,101970.54
2019-02-05T20:21:11.168Z,101980.14
2019-02-05T20:23:40.407Z,101983.64
2019-02-05T20:26:09.615Z,101980.23
2019-02-05T20:28:39.260Z,101984.64
2019-02-05T20:31:08.460Z,101989.57
2019-02-05T20:33:37.916Z,101982.53
2019-02-05T20:36:07.115Z,101975.47
2019-02-05T20:38:36.591Z,101979.91
2019-02-05T20:41:06.030Z,101978.00
2019-02-05T20:43:35.576Z,101981.02
2019-02-05T20:46:04.781Z,101986.78
2019-02-05T20:48:34.057Z,101983.64
2019-02-05T20:51:04.175Z,101987.09
2019-02-05T20:53:33.416Z,101990.34
2019-02-05T20:56:02.640Z,101986.41
2019-02-05T20:58:31.893Z,101988.23
2019-02-05T21:01:01.443Z,101988.41
2019-02-05T21:03:31.682Z,101983.48
2019-02-05T21:06:00.950Z,101986.19
2019-02-05T21:08:30.157Z,101985.30
2019-02-05T21:10:59.399Z,101991.03
2019-02-05T21:13:28.612Z,101989.80
2019-02-05T21:15:57.861Z,101989.41
2019-02-05T21:18:27.060Z,101988.09
2019-02-05T21:20:56.402Z,101989.41
2019-02-05T21:23:25.752Z,101995.79
2019-02-05T21:25:54.967Z,101998.72
2019-02-05T21:28:24.227Z,102007.78
2019-02-05T21:30:53.434Z,102008.21
2019-02-05T21:33:23.060Z,102014.25
2019-02-05T21:35:52.401Z,102010.31
2019-02-05T21:38:21.589Z,102012.05
2019-02-05T21:40:50.834Z,102011.71
2019-02-05T21:43:20.139Z,102006.47
2019-02-05T21:45:49.423Z,102011.83
2019-02-05T21:48:18.619Z,102011.83
2019-02-05T21:50:48.013Z,102012.31
2019-02-05T21:53:17.260Z,102017.55
2019-02-05T21:55:46.589Z,102010.60
2019-02-05T21:58:15.840Z,102011.83
2019-02-05T22:00:46.040Z,102011.00
2019-02-05T22:03:15.463Z,102011.09
2019-02-05T22:05:45.172Z,102003.97
2019-02-05T22:08:14.429Z,101992.66
2019-02-05T22:10:43.768Z,101995.67
2019-02-05T22:13:12.956Z,101990.86
2019-02-05T22:15:42.197Z,101988.04
2019-02-05T22:18:11.396Z,101974.84
2019-02-05T22:20:40.632Z,101984.94
2019-02-05T22:23:10.308Z,101983.23
2019-02-05T22:25:39.550Z,101987.16
2019-02-05T22:28:08.794Z,101986.73
2019-02-05T22:30:38.870Z,101992.48
2019-02-05T22:33:08.585Z,101986.09
2019-02-05T22:35:37.821Z,101979.06
2019-02-05T22:38:07.023Z,101975.13
2019-02-05T22:40:36.216Z,101977.44
2019-02-05T22:43:05.895Z,101980.62
2019-02-05T22:45:35.079Z,101980.14
2019-02-05T22:48:04.452Z,101974.98
2019-02-05T22:50:35.905Z,101970.30
2019-02-05T22:53:07.349Z,101967.37
2019-02-05T22:55:36.704Z,101960.65
2019-02-05T22:58:06.171Z,101970.91
2019-02-05T23:00:51.058Z,101969.11
2019-02-05T23:03:32.476Z,101966.48
2019-02-05T23:06:20.047Z,101965.66
2019-02-05T23:08:49.305Z,101972.37
2019-02-05T23:11:22.095Z,101976.31
2019-02-05T23:13:51.313Z,101971.90
2019-02-05T23:16:20.622Z,101964.03
2019-02-05T23:18:49.821Z,101961.09
2019-02-05T23:21:19.057Z,101955.85
2019-02-05T23:23:48.257Z,101959.27
2019-02-05T23:26:17.876Z,101957.08
2019-02-05T23:28:47.112Z,101950.53
2019-02-05T23:31:16.394Z,101955.85
2019-02-05T23:33:45.570Z,101953.47
2019-02-05T23:36:14.787Z,101950.92
2019-02-05T23:38:44.023Z,101953.55
2019-02-05T23:41:13.733Z,101953.62
2019-02-05T23:43:43.250Z,101954.54
2019-02-05T23:46:12.494Z,101955.45
2019-02-05T23:48:41.758Z,101947.08
2019-02-05T23:51:11.332Z,101947.08
2019-02-05T23:53:40.573Z,101949.70
2019-02-05T23:56:10.177Z,101940.36
2019-02-05T23:58:39.386Z,101936.42
